Time;durP1;ratioP1;P1;durP2;ratioP2;P2;SDS_P1;SDS_P2;PMS_P1;PMS_P2;Temp;Humidity;BMP_temperature;BMP_pressure;BME280_temperature;BME280_humidity;BME280_pressure;Samples;Min_cycle;Max_cycle;Signal;HPM_P1;HPM_P2
2021/08/08 00:00:54;;;;;;;3.22;1.20;;;;;;;;;;5055612;28;20110;-68
2021/08/08 00:03:20;;;;;;;2.78;1.20;;;;;;;;;;5055498;28;20029;-67
2021/08/08 00:05:46;;;;;;;3.58;1.30;;;;;;;;;;5054259;28;20037;-67
2021/08/08 00:08:13;;;;;;;3.00;1.30;;;;;;;;;;5055662;28;20055;-68
2021/08/08 00:10:40;;;;;;;2.50;1.10;;;;;;;;;;5055666;28;20024;-68
2021/08/08 00:13:06;;;;;;;2.63;1.08;;;;;;;;;;5055482;28;20025;-68
2021/08/08 00:15:34;;;;;;;1.70;0.90;;;;;;;;;;5055072;28;20087;-68
2021/08/08 00:18:02;;;;;;;2.67;1.05;;;;;;;;;;5055444;28;20520;-68
2021/08/08 00:20:28;;;;;;;4.05;1.17;;;;;;;;;;5055354;28;20021;-68
2021/08/08 00:22:54;;;;;;;3.08;1.33;;;;;;;;;;5053841;28;20111;-68
2021/08/08 00:25:20;;;;;;;3.13;1.05;;;;;;;;;;5055294;28;20093;-67
2021/08/08 00:27:46;;;;;;;1.73;0.90;;;;;;;;;;5055208;28;20036;-68
2021/08/08 00:30:13;;;;;;;1.90;0.90;;;;;;;;;;5055204;28;20021;-67
2021/08/08 00:32:39;;;;;;;2.55;1.13;;;;;;;;;;5054986;28;20036;-68
2021/08/08 00:35:05;;;;;;;2.40;1.10;;;;;;;;;;5055160;28;20077;-67
2021/08/08 00:37:31;;;;;;;3.42;1.50;;;;;;;;;;5053764;28;20032;-68
2021/08/08 00:39:57;;;;;;;2.53;1.10;;;;;;;;;;5054851;28;20075;-68
2021/08/08 00:42:23;;;;;;;3.08;1.35;;;;;;;;;;5054716;28;20037;-68
2021/08/08 00:44:49;;;;;;;2.53;1.10;;;;;;;;;;5055150;28;20063;-68
2021/08/08 00:47:16;;;;;;;2.65;1.20;;;;;;;;;;5054934;28;20033;-68
2021/08/08 00:49:42;;;;;;;2.25;1.00;;;;;;;;;;5054873;28;20092;-68
2021/08/08 00:52:08;;;;;;;3.58;1.10;;;;;;;;;;5054824;28;20036;-68
2021/08/08 00:54:34;;;;;;;2.83;1.13;;;;;;;;;;5054780;28;20029;-68
2021/08/08 00:57:00;;;;;;;2.53;1.05;;;;;;;;;;5054609;28;20029;-68
2021/08/08 00:59:26;;;;;;;3.28;1.10;;;;;;;;;;5054733;28;20029;-68
2021/08/08 01:01:54;;;;;;;1.67;0.98;;;;;;;;;;5054305;28;20079;-67
2021/08/08 01:04:25;;;;;;;2.35;0.90;;;;;;;;;;5054740;28;20120;-67
2021/08/08 01:06:54;;;;;;;3.85;1.23;;;;;;;;;;5053250;28;20534;-68
2021/08/08 01:09:22;;;;;;;2.90;1.10;;;;;;;;;;5037009;28;20028;-68
2021/08/08 01:11:48;;;;;;;2.65;1.30;;;;;;;;;;5034348;28;20077;-68
2021/08/08 01:14:15;;;;;;;2.53;1.13;;;;;;;;;;5034094;28;20401;-68
2021/08/08 01:16:42;;;;;;;5.15;1.10;;;;;;;;;;5034478;28;20541;-68
2021/08/08 01:19:10;;;;;;;3.15;1.00;;;;;;;;;;5034465;28;20053;-67
2021/08/08 01:21:37;;;;;;;3.25;1.20;;;;;;;;;;5034476;28;20307;-68
2021/08/08 01:24:04;;;;;;;2.30;1.00;;;;;;;;;;5034124;28;20038;-67
2021/08/08 01:26:31;;;;;;;2.85;1.10;;;;;;;;;;5034276;28;20388;-68
2021/08/08 01:29:01;;;;;;;2.28;1.10;;;;;;;;;;5034457;28;20461;-67
2021/08/08 01:31:27;;;;;;;2.58;1.08;;;;;;;;;;5034023;28;20022;-69
2021/08/08 01:33:53;;;;;;;2.30;1.10;;;;;;;;;;5034105;28;20485;-68
2021/08/08 01:36:20;;;;;;;2.65;1.10;;;;;;;;;;5034068;28;20025;-67
2021/08/08 01:38:50;;;;;;;2.20;1.02;;;;;;;;;;5033952;28;20049;-68
2021/08/08 01:41:17;;;;;;;2.13;0.95;;;;;;;;;;5033801;28;20029;-67
2021/08/08 01:43:45;;;;;;;3.05;1.17;;;;;;;;;;5032399;28;20068;-68
2021/08/08 01:46:11;;;;;;;3.08;1.20;;;;;;;;;;5033865;28;20021;-67
2021/08/08 01:48:40;;;;;;;3.58;1.17;;;;;;;;;;5033769;28;20443;-67
2021/08/08 01:51:06;;;;;;;3.92;1.30;;;;;;;;;;5033647;28;20488;-67
2021/08/08 01:53:33;;;;;;;2.88;1.10;;;;;;;;;;5033722;28;20208;-67
2021/08/08 01:55:59;;;;;;;4.25;1.30;;;;;;;;;;5033770;28;20480;-68
2021/08/08 01:58:27;;;;;;;2.47;1.13;;;;;;;;;;5032246;28;20120;-67
2021/08/08 02:00:54;;;;;;;2.35;0.98;;;;;;;;;;5032202;28;20104;-68
2021/08/08 02:03:20;;;;;;;3.92;1.30;;;;;;;;;;5033407;28;20034;-68
2021/08/08 02:05:46;;;;;;;2.50;1.15;;;;;;;;;;5033471;28;20201;-68
2021/08/08 02:08:12;;;;;;;3.28;0.98;;;;;;;;;;5033462;28;20040;-67
2021/08/08 02:10:38;;;;;;;2.22;1.00;;;;;;;;;;5033405;28;20108;-68
2021/08/08 02:13:04;;;;;;;2.80;1.20;;;;;;;;;;5032492;28;20413;-68
2021/08/08 02:15:30;;;;;;;2.83;1.13;;;;;;;;;;5033516;28;20049;-67
2021/08/08 02:17:56;;;;;;;2.70;1.08;;;;;;;;;;5033327;28;20036;-67
2021/08/08 02:20:22;;;;;;;2.70;1.30;;;;;;;;;;5033175;28;20092;-67
2021/08/08 02:22:48;;;;;;;4.07;1.40;;;;;;;;;;5033079;28;20037;-67
2021/08/08 02:25:15;;;;;;;3.25;1.38;;;;;;;;;;5033144;28;20108;-68
2021/08/08 02:27:41;;;;;;;2.60;1.20;;;;;;;;;;5033295;28;20029;-67
2021/08/08 02:30:09;;;;;;;3.22;1.05;;;;;;;;;;5033135;28;20021;-68
2021/08/08 02:32:35;;;;;;;2.67;1.20;;;;;;;;;;5032594;28;20037;-68
2021/08/08 02:35:01;;;;;;;2.58;1.17;;;;;;;;;;5032748;28;20010;-67
2021/08/08 02:37:27;;;;;;;2.83;1.38;;;;;;;;;;5033131;28;20025;-67
2021/08/08 02:39:53;;;;;;;3.10;1.20;;;;;;;;;;5033042;28;20013;-68
2021/08/08 02:42:20;;;;;;;1.90;0.90;;;;;;;;;;5032604;28;20024;-68
2021/08/08 02:44:46;;;;;;;3.08;1.20;;;;;;;;;;5032845;28;20107;-67
2021/08/08 02:47:12;;;;;;;3.00;1.30;;;;;;;;;;5032800;28;20025;-68
2021/08/08 02:49:38;;;;;;;2.38;1.20;;;;;;;;;;5032663;28;20022;-67
2021/08/08 02:52:04;;;;;;;3.20;1.20;;;;;;;;;;5032975;28;20405;-67
2021/08/08 02:54:30;;;;;;;2.53;1.00;;;;;;;;;;5032945;28;20056;-68
2021/08/08 02:56:56;;;;;;;2.78;1.20;;;;;;;;;;5032466;28;20053;-68
2021/08/08 02:59:22;;;;;;;3.08;1.00;;;;;;;;;;5032451;28;20026;-68
2021/08/08 03:01:48;;;;;;;4.03;1.67;;;;;;;;;;5032292;28;20075;-68
2021/08/08 03:04:14;;;;;;;2.55;1.23;;;;;;;;;;5032311;28;20029;-68
2021/08/08 03:06:44;;;;;;;3.20;1.25;;;;;;;;;;5032292;28;20021;-67
2021/08/08 03:09:10;;;;;;;2.65;1.33;;;;;;;;;;5030918;28;20033;-68
2021/08/08 03:11:36;;;;;;;2.40;1.08;;;;;;;;;;5032238;28;20109;-68
2021/08/08 03:14:02;;;;;;;2.78;1.30;;;;;;;;;;5032218;28;20052;-67
2021/08/08 03:16:28;;;;;;;4.35;1.20;;;;;;;;;;5032328;28;20084;-68
2021/08/08 03:18:54;;;;;;;2.22;1.20;;;;;;;;;;5032176;28;20073;-68
2021/08/08 03:21:20;;;;;;;2.42;1.17;;;;;;;;;;5032062;28;20018;-68
2021/08/08 03:23:47;;;;;;;4.07;1.10;;;;;;;;;;5032056;28;20065;-68
2021/08/08 03:26:13;;;;;;;4.13;1.20;;;;;;;;;;5032085;28;20161;-67
2021/08/08 03:28:39;;;;;;;2.30;1.08;;;;;;;;;;5032140;28;20021;-68
2021/08/08 03:31:05;;;;;;;2.38;1.05;;;;;;;;;;5031890;28;20045;-67
2021/08/08 03:33:31;;;;;;;2.70;1.27;;;;;;;;;;5032091;28;20033;-67
2021/08/08 03:35:57;;;;;;;2.38;1.00;;;;;;;;;;5030856;28;20079;-68
2021/08/08 03:38:23;;;;;;;2.75;1.10;;;;;;;;;;5032065;28;20049;-68
2021/08/08 03:40:49;;;;;;;2.20;0.82;;;;;;;;;;5032020;28;20049;-67
2021/08/08 03:43:16;;;;;;;2.40;1.17;;;;;;;;;;5030435;28;20126;-67
2021/08/08 03:45:42;;;;;;;2.90;1.30;;;;;;;;;;5031852;28;20026;-68
2021/08/08 03:48:08;;;;;;;2.30;1.23;;;;;;;;;;5030786;28;20103;-67
2021/08/08 03:50:34;;;;;;;2.03;0.93;;;;;;;;;;5032148;28;20017;-68
2021/08/08 03:53:00;;;;;;;3.08;1.20;;;;;;;;;;5030428;28;20018;-68
2021/08/08 03:55:26;;;;;;;4.43;1.88;;;;;;;;;;5031779;28;20021;-68
2021/08/08 03:57:53;;;;;;;3.47;1.40;;;;;;;;;;5030435;28;20068;-67
2021/08/08 04:00:19;;;;;;;2.63;1.33;;;;;;;;;;5031684;28;20096;-67
2021/08/08 04:02:45;;;;;;;2.80;1.08;;;;;;;;;;5031575;28;20033;-68
2021/08/08 04:05:11;;;;;;;2.65;1.10;;;;;;;;;;5031709;28;20030;-68
2021/08/08 04:07:38;;;;;;;2.67;1.27;;;;;;;;;;5031702;28;20520;-68
2021/08/08 04:10:04;;;;;;;2.75;1.30;;;;;;;;;;5031661;28;20104;-68
2021/08/08 04:12:30;;;;;;;2.28;1.15;;;;;;;;;;5031605;28;20025;-68
2021/08/08 04:14:56;;;;;;;2.45;1.08;;;;;;;;;;5031450;28;20123;-68
2021/08/08 04:17:22;;;;;;;3.85;1.17;;;;;;;;;;5031700;28;20079;-68
2021/08/08 04:19:49;;;;;;;2.97;1.30;;;;;;;;;;5031540;28;20053;-68
2021/08/08 04:22:15;;;;;;;3.13;1.30;;;;;;;;;;5030289;28;20076;-68
2021/08/08 04:24:41;;;;;;;2.60;1.17;;;;;;;;;;5031589;28;20029;-68
2021/08/08 04:27:07;;;;;;;1.80;1.00;;;;;;;;;;5031596;28;20064;-67
2021/08/08 04:29:33;;;;;;;3.03;1.23;;;;;;;;;;5031584;28;20096;-68
2021/08/08 04:32:00;;;;;;;3.35;1.30;;;;;;;;;;5031562;28;20017;-67
2021/08/08 04:34:29;;;;;;;2.88;1.35;;;;;;;;;;5030262;28;20061;-68
2021/08/08 04:36:55;;;;;;;3.15;1.17;;;;;;;;;;5033016;28;20147;-68
2021/08/08 04:39:21;;;;;;;2.40;1.20;;;;;;;;;;5035214;28;20025;-67
2021/08/08 04:41:47;;;;;;;3.10;1.40;;;;;;;;;;5034822;28;20026;-68
2021/08/08 04:44:14;;;;;;;3.00;1.10;;;;;;;;;;5034940;28;20028;-68
2021/08/08 04:46:40;;;;;;;2.83;1.10;;;;;;;;;;5034847;28;20021;-68
2021/08/08 04:49:06;;;;;;;2.95;1.17;;;;;;;;;;5034976;28;20108;-68
2021/08/08 04:51:32;;;;;;;2.67;1.23;;;;;;;;;;5034719;28;20018;-68
2021/08/08 04:53:58;;;;;;;4.20;1.05;;;;;;;;;;5034803;28;20026;-67
2021/08/08 04:56:24;;;;;;;2.47;1.30;;;;;;;;;;5033817;28;20031;-67
2021/08/08 04:58:50;;;;;;;2.70;1.20;;;;;;;;;;5034796;28;20127;-68
2021/08/08 05:01:16;;;;;;;2.30;1.05;;;;;;;;;;5033342;28;20029;-68
2021/08/08 05:03:42;;;;;;;2.38;1.20;;;;;;;;;;5034647;28;20075;-68
2021/08/08 05:06:08;;;;;;;2.55;1.00;;;;;;;;;;5033197;28;20022;-68
2021/08/08 05:08:34;;;;;;;3.10;1.10;;;;;;;;;;5034475;28;20032;-68
2021/08/08 05:11:00;;;;;;;3.40;1.17;;;;;;;;;;5034370;28;20097;-68
2021/08/08 05:13:28;;;;;;;1.70;0.90;;;;;;;;;;5034818;28;20369;-67
2021/08/08 05:15:54;;;;;;;2.50;0.90;;;;;;;;;;5034431;28;20049;-67
2021/08/08 05:18:21;;;;;;;2.72;1.17;;;;;;;;;;5034475;28;20029;-68
2021/08/08 05:20:47;;;;;;;3.97;1.35;;;;;;;;;;5034360;28;20053;-68
2021/08/08 05:23:13;;;;;;;2.50;0.93;;;;;;;;;;5034180;28;20041;-67
2021/08/08 05:25:39;;;;;;;2.97;1.00;;;;;;;;;;5034239;28;20116;-68
2021/08/08 05:28:05;;;;;;;3.30;0.85;;;;;;;;;;5034250;28;20104;-68
2021/08/08 05:30:31;;;;;;;1.90;0.80;;;;;;;;;;5032849;28;20026;-68
2021/08/08 05:32:57;;;;;;;2.85;0.90;;;;;;;;;;5033952;28;20029;-68
2021/08/08 05:35:23;;;;;;;1.48;0.70;;;;;;;;;;5034196;28;20174;-68
2021/08/08 05:37:49;;;;;;;1.83;0.98;;;;;;;;;;5034103;28;20053;-67
2021/08/08 05:40:16;;;;;;;2.42;0.80;;;;;;;;;;5033975;28;20022;-68
2021/08/08 05:42:51;;;;;;;3.20;1.08;;;;;;;;;;5032477;28;20033;-68
2021/08/08 05:45:21;;;;;;;3.15;0.77;;;;;;;;;;5034133;28;20067;-68
2021/08/08 05:47:47;;;;;;;1.73;0.70;;;;;;;;;;5031788;28;20025;-68
2021/08/08 05:50:13;;;;;;;2.88;0.75;;;;;;;;;;5033691;28;20025;-68
2021/08/08 05:52:39;;;;;;;2.30;0.90;;;;;;;;;;5032372;28;20021;-68
2021/08/08 05:55:05;;;;;;;1.58;0.70;;;;;;;;;;5033715;28;20500;-68
2021/08/08 05:57:32;;;;;;;2.83;0.70;;;;;;;;;;5033529;28;20024;-68
2021/08/08 05:59:58;;;;;;;1.85;0.70;;;;;;;;;;5033628;28;20032;-68
2021/08/08 06:02:24;;;;;;;3.15;0.80;;;;;;;;;;5033217;28;20028;-68
2021/08/08 06:04:50;;;;;;;4.15;0.60;;;;;;;;;;5033721;28;20029;-68
2021/08/08 06:07:16;;;;;;;1.10;0.60;;;;;;;;;;5032381;28;20018;-68
2021/08/08 06:09:43;;;;;;;1.88;0.70;;;;;;;;;;5033599;28;20079;-68
2021/08/08 06:12:09;;;;;;;2.60;0.77;;;;;;;;;;5033437;28;20061;-68
2021/08/08 06:14:35;;;;;;;4.07;0.77;;;;;;;;;;5033146;28;20044;-68
2021/08/08 06:17:01;;;;;;;1.77;0.80;;;;;;;;;;5033291;28;20030;-69
2021/08/08 06:19:27;;;;;;;1.23;0.57;;;;;;;;;;5033290;28;20108;-68
2021/08/08 06:21:53;;;;;;;2.22;0.60;;;;;;;;;;5033162;28;20068;-68
2021/08/08 06:24:19;;;;;;;1.50;0.65;;;;;;;;;;5033174;28;20494;-68
2021/08/08 06:26:45;;;;;;;1.33;0.60;;;;;;;;;;5033071;28;20026;-68
2021/08/08 06:29:12;;;;;;;1.95;0.63;;;;;;;;;;5032999;28;20025;-68
2021/08/08 06:31:38;;;;;;;1.13;0.40;;;;;;;;;;5032908;28;20014;-68
2021/08/08 06:34:04;;;;;;;1.65;0.55;;;;;;;;;;5033152;28;20022;-68
2021/08/08 06:36:30;;;;;;;1.23;0.55;;;;;;;;;;5032939;28;20094;-68
2021/08/08 06:38:58;;;;;;;1.98;0.73;;;;;;;;;;5032878;28;20045;-68
2021/08/08 06:41:24;;;;;;;1.67;0.70;;;;;;;;;;5033037;28;20021;-68
2021/08/08 06:43:51;;;;;;;1.23;0.63;;;;;;;;;;5031207;28;20036;-69
2021/08/08 06:46:17;;;;;;;1.85;0.57;;;;;;;;;;5032601;28;20506;-68
2021/08/08 06:48:43;;;;;;;1.15;0.50;;;;;;;;;;5032671;28;20373;-69
2021/08/08 06:51:09;;;;;;;1.40;0.60;;;;;;;;;;5032696;28;20020;-68
2021/08/08 06:53:35;;;;;;;1.40;0.70;;;;;;;;;;5032501;28;20018;-68
2021/08/08 06:56:01;;;;;;;1.35;0.57;;;;;;;;;;5031255;28;20037;-68
2021/08/08 06:58:27;;;;;;;2.00;0.63;;;;;;;;;;5032556;28;20029;-68
2021/08/08 07:00:54;;;;;;;1.52;0.57;;;;;;;;;;5032233;28;20155;-68
2021/08/08 07:03:20;;;;;;;1.00;0.50;;;;;;;;;;5032375;28;20105;-68
2021/08/08 07:05:46;;;;;;;2.22;0.70;;;;;;;;;;5032495;28;20018;-68
2021/08/08 07:08:12;;;;;;;0.98;0.52;;;;;;;;;;5031061;28;20464;-69
2021/08/08 07:10:38;;;;;;;0.98;0.55;;;;;;;;;;5032274;28;20472;-67
2021/08/08 07:13:04;;;;;;;2.67;0.60;;;;;;;;;;5031142;28;20030;-68
2021/08/08 07:15:30;;;;;;;1.50;0.80;;;;;;;;;;5032205;28;20044;-69
2021/08/08 07:17:56;;;;;;;1.92;0.68;;;;;;;;;;5032188;28;20033;-68
2021/08/08 07:20:22;;;;;;;2.13;0.70;;;;;;;;;;5032085;28;20096;-68
2021/08/08 07:22:48;;;;;;;1.83;0.68;;;;;;;;;;5032122;28;20032;-68
2021/08/08 07:25:14;;;;;;;3.30;0.60;;;;;;;;;;5032462;28;20036;-68
2021/08/08 07:27:40;;;;;;;1.73;0.57;;;;;;;;;;5031847;28;20021;-68
2021/08/08 07:30:07;;;;;;;1.20;0.50;;;;;;;;;;5031905;28;20025;-68
2021/08/08 07:32:33;;;;;;;1.08;0.45;;;;;;;;;;5031989;28;20104;-68
2021/08/08 07:35:00;;;;;;;2.03;0.60;;;;;;;;;;5030500;28;20112;-68
2021/08/08 07:37:26;;;;;;;1.70;0.60;;;;;;;;;;5031784;28;20024;-68
2021/08/08 07:39:52;;;;;;;1.05;0.45;;;;;;;;;;5031726;28;20017;-68
2021/08/08 07:42:18;;;;;;;1.50;0.57;;;;;;;;;;5031800;28;20160;-69
2021/08/08 07:44:44;;;;;;;1.30;0.50;;;;;;;;;;5032075;28;20025;-68
2021/08/08 07:47:15;;;;;;;1.70;0.82;;;;;;;;;;5032207;28;20026;-68
2021/08/08 07:49:41;;;;;;;0.82;0.55;;;;;;;;;;5032186;28;20028;-68
2021/08/08 07:52:07;;;;;;;2.78;0.50;;;;;;;;;;5032008;28;20021;-69
2021/08/08 07:54:33;;;;;;;1.83;0.60;;;;;;;;;;5030679;28;20033;-68
2021/08/08 07:56:59;;;;;;;0.85;0.50;;;;;;;;;;5030429;28;20506;-68
2021/08/08 07:59:25;;;;;;;1.13;0.60;;;;;;;;;;5031828;28;20029;-69
2021/08/08 08:01:52;;;;;;;0.85;0.50;;;;;;;;;;5030370;28;20396;-68
2021/08/08 08:04:20;;;;;;;1.75;0.65;;;;;;;;;;5031786;28;20053;-68
2021/08/08 08:06:47;;;;;;;1.92;0.60;;;;;;;;;;5031604;28;20408;-69
2021/08/08 08:09:13;;;;;;;1.13;0.57;;;;;;;;;;5031696;28;20021;-68
2021/08/08 08:11:41;;;;;;;1.08;0.50;;;;;;;;;;5032983;28;20123;-68
2021/08/08 08:14:07;;;;;;;0.80;0.40;;;;;;;;;;5034171;28;20049;-68
2021/08/08 08:16:33;;;;;;;1.50;0.60;;;;;;;;;;5035595;28;20388;-68
2021/08/08 08:18:59;;;;;;;1.33;0.65;;;;;;;;;;5034377;28;20017;-68
2021/08/08 08:21:25;;;;;;;1.58;0.63;;;;;;;;;;5035509;28;20025;-69
2021/08/08 08:23:51;;;;;;;2.17;0.50;;;;;;;;;;5033949;28;20037;-68
2021/08/08 08:26:17;;;;;;;0.50;0.40;;;;;;;;;;5035083;28;20151;-68
2021/08/08 08:28:43;;;;;;;1.70;0.60;;;;;;;;;;5035159;28;20025;-68
2021/08/08 08:31:09;;;;;;;1.00;0.50;;;;;;;;;;5035220;28;20022;-68
2021/08/08 08:33:36;;;;;;;0.90;0.50;;;;;;;;;;5035455;28;20052;-68
2021/08/08 08:36:03;;;;;;;0.65;0.43;;;;;;;;;;5035265;28;20026;-68
2021/08/08 08:38:29;;;;;;;0.73;0.50;;;;;;;;;;5035429;28;20033;-68
2021/08/08 08:40:56;;;;;;;1.55;0.60;;;;;;;;;;5035110;28;20029;-68
2021/08/08 08:43:26;;;;;;;1.70;0.73;;;;;;;;;;5035114;28;20064;-68
2021/08/08 08:45:53;;;;;;;1.25;0.63;;;;;;;;;;5034903;28;20468;-68
2021/08/08 08:48:19;;;;;;;1.13;0.65;;;;;;;;;;5034749;28;20056;-68
2021/08/08 08:50:51;;;;;;;2.25;0.85;;;;;;;;;;5033254;28;20083;-68
2021/08/08 08:53:17;;;;;;;3.00;0.75;;;;;;;;;;5034962;28;20022;-68
2021/08/08 08:55:43;;;;;;;2.85;0.73;;;;;;;;;;5034892;28;20018;-68
2021/08/08 08:58:10;;;;;;;1.00;0.40;;;;;;;;;;5034842;28;20054;-68
2021/08/08 09:00:36;;;;;;;0.75;0.50;;;;;;;;;;5033510;28;20029;-68
2021/08/08 09:03:02;;;;;;;0.98;0.45;;;;;;;;;;5034433;28;20033;-68
2021/08/08 09:05:30;;;;;;;2.08;0.70;;;;;;;;;;5034299;28;20096;-68
2021/08/08 09:07:56;;;;;;;1.60;0.65;;;;;;;;;;5033381;28;20484;-68
2021/08/08 09:10:23;;;;;;;0.65;0.40;;;;;;;;;;5034671;28;20029;-68
2021/08/08 09:12:59;;;;;;;1.60;0.60;;;;;;;;;;5034299;28;20029;-69
2021/08/08 09:15:33;;;;;;;1.27;0.60;;;;;;;;;;5034356;28;20051;-68
2021/08/08 09:18:22;;;;;;;1.65;0.60;;;;;;;;;;5034417;28;20022;-68
2021/08/08 09:20:49;;;;;;;1.73;0.55;;;;;;;;;;5034453;28;20033;-68
2021/08/08 09:23:17;;;;;;;1.50;0.63;;;;;;;;;;5033995;28;20041;-68
2021/08/08 09:25:56;;;;;;;1.40;0.60;;;;;;;;;;5033972;28;20048;-68
2021/08/08 09:28:29;;;;;;;0.90;0.55;;;;;;;;;;5034484;28;20025;-68
2021/08/08 09:30:55;;;;;;;1.48;0.60;;;;;;;;;;5033004;28;20018;-68
2021/08/08 09:33:21;;;;;;;2.30;0.70;;;;;;;;;;5034167;28;20032;-68
2021/08/08 09:35:50;;;;;;;1.70;0.60;;;;;;;;;;5034003;28;20029;-68
2021/08/08 09:38:18;;;;;;;1.20;0.60;;;;;;;;;;5032638;28;20477;-68
2021/08/08 09:40:44;;;;;;;1.38;0.68;;;;;;;;;;5034274;28;20049;-69
2021/08/08 09:43:11;;;;;;;2.55;0.70;;;;;;;;;;5033813;28;20041;-68
2021/08/08 09:45:45;;;;;;;1.15;0.50;;;;;;;;;;5033814;28;20044;-68
2021/08/08 09:48:12;;;;;;;1.88;0.63;;;;;;;;;;5033681;28;20026;-68
2021/08/08 09:50:39;;;;;;;0.93;0.50;;;;;;;;;;5033722;28;20025;-68
2021/08/08 09:53:06;;;;;;;1.67;0.50;;;;;;;;;;5033845;28;20097;-68
2021/08/08 09:55:39;;;;;;;1.00;0.55;;;;;;;;;;5032499;28;20018;-68
2021/08/08 09:58:27;;;;;;;2.20;0.60;;;;;;;;;;5033901;28;20025;-68
2021/08/08 10:01:00;;;;;;;0.95;0.50;;;;;;;;;;5033574;28;20022;-68
2021/08/08 10:03:26;;;;;;;1.85;0.65;;;;;;;;;;5033550;28;20041;-68
2021/08/08 10:05:55;;;;;;;1.52;0.60;;;;;;;;;;5032307;28;20017;-68
2021/08/08 10:08:24;;;;;;;2.42;0.75;;;;;;;;;;5031917;28;20026;-68
2021/08/08 10:10:52;;;;;;;2.05;1.08;;;;;;;;;;5033299;28;20072;-68
2021/08/08 10:13:28;;;;;;;1.45;0.70;;;;;;;;;;5033435;28;20052;-68
2021/08/08 10:15:54;;;;;;;2.22;0.70;;;;;;;;;;5033278;28;20133;-68
2021/08/08 10:18:24;;;;;;;1.17;0.60;;;;;;;;;;5033486;28;20026;-68
2021/08/08 10:20:50;;;;;;;1.15;0.60;;;;;;;;;;5033406;28;20017;-68
2021/08/08 10:23:17;;;;;;;2.55;0.60;;;;;;;;;;5031914;28;20201;-68
2021/08/08 10:25:45;;;;;;;1.38;0.70;;;;;;;;;;5032995;28;20049;-68
2021/08/08 10:28:11;;;;;;;0.98;0.50;;;;;;;;;;5033195;28;20025;-68
2021/08/08 10:30:38;;;;;;;2.50;0.70;;;;;;;;;;5033192;28;20262;-68
2021/08/08 10:33:07;;;;;;;1.13;0.60;;;;;;;;;;5031673;28;20030;-68
2021/08/08 10:35:44;;;;;;;1.85;0.63;;;;;;;;;;5032364;28;20032;-68
2021/08/08 10:38:10;;;;;;;1.73;0.60;;;;;;;;;;5032945;28;20029;-68
2021/08/08 10:40:37;;;;;;;1.27;0.60;;;;;;;;;;5032723;28;20021;-68
2021/08/08 10:43:05;;;;;;;1.23;0.60;;;;;;;;;;5032615;28;20025;-68
2021/08/08 10:45:32;;;;;;;1.10;0.60;;;;;;;;;;5032671;28;20049;-68
2021/08/08 10:47:59;;;;;;;2.80;0.70;;;;;;;;;;5032397;28;20495;-69
2021/08/08 10:50:35;;;;;;;2.20;0.50;;;;;;;;;;5031252;28;20029;-68
2021/08/08 10:53:01;;;;;;;2.83;0.60;;;;;;;;;;5032752;28;20025;-68
2021/08/08 10:55:30;;;;;;;0.80;0.50;;;;;;;;;;5031340;28;20029;-68
2021/08/08 10:57:56;;;;;;;0.85;0.50;;;;;;;;;;5032986;28;20435;-68
2021/08/08 11:00:30;;;;;;;0.70;0.50;;;;;;;;;;5032641;28;20053;-68
2021/08/08 11:02:56;;;;;;;1.13;0.55;;;;;;;;;;5032356;28;20445;-69
2021/08/08 11:05:22;;;;;;;1.20;0.50;;;;;;;;;;5031009;28;20021;-68
2021/08/08 11:07:49;;;;;;;1.67;0.70;;;;;;;;;;5032633;28;20057;-68
2021/08/08 11:10:27;;;;;;;1.63;0.55;;;;;;;;;;5032396;28;20018;-68
2021/08/08 11:12:54;;;;;;;1.00;0.68;;;;;;;;;;5030999;28;20025;-68
2021/08/08 11:15:31;;;;;;;1.23;0.60;;;;;;;;;;5030878;28;20056;-68
2021/08/08 11:17:58;;;;;;;1.23;0.60;;;;;;;;;;5032233;28;20037;-68
2021/08/08 11:20:28;;;;;;;1.50;0.70;;;;;;;;;;5032195;28;20024;-68
2021/08/08 11:22:55;;;;;;;1.50;0.70;;;;;;;;;;5032069;28;20488;-68
2021/08/08 11:25:23;;;;;;;1.25;0.60;;;;;;;;;;5032374;28;20025;-69
2021/08/08 11:27:52;;;;;;;2.05;0.70;;;;;;;;;;5030647;28;20438;-68
2021/08/08 11:30:18;;;;;;;1.42;0.68;;;;;;;;;;5030695;28;20032;-68
2021/08/08 11:32:47;;;;;;;1.58;0.63;;;;;;;;;;5031996;28;20028;-68
2021/08/08 11:35:17;;;;;;;1.13;0.60;;;;;;;;;;5031873;28;20029;-69
2021/08/08 11:37:45;;;;;;;1.50;0.60;;;;;;;;;;5032103;28;20085;-67
2021/08/08 11:40:19;;;;;;;2.38;0.77;;;;;;;;;;5031997;28;20021;-68
2021/08/08 11:42:46;;;;;;;0.93;0.45;;;;;;;;;;5031941;28;20029;-68
2021/08/08 11:45:12;;;;;;;1.38;0.63;;;;;;;;;;5030663;28;20033;-68
2021/08/08 11:47:38;;;;;;;1.33;0.55;;;;;;;;;;5035024;28;20104;-69
2021/08/08 11:50:06;;;;;;;1.40;0.55;;;;;;;;;;5034781;28;20450;-68
2021/08/08 11:52:33;;;;;;;2.50;0.50;;;;;;;;;;5035973;28;20025;-69
2021/08/08 11:55:00;;;;;;;0.45;0.30;;;;;;;;;;5036118;28;20025;-68
2021/08/08 11:57:27;;;;;;;1.02;0.40;;;;;;;;;;5036097;28;20021;-69
2021/08/08 11:59:53;;;;;;;1.00;0.50;;;;;;;;;;5036159;28;20539;-68
2021/08/08 12:02:19;;;;;;;2.25;0.60;;;;;;;;;;5034435;28;20025;-68
2021/08/08 12:04:46;;;;;;;2.13;0.60;;;;;;;;;;5034536;28;20051;-68
2021/08/08 12:07:12;;;;;;;1.13;0.57;;;;;;;;;;5035733;28;20611;-68
2021/08/08 12:09:45;;;;;;;1.63;0.55;;;;;;;;;;5035513;28;20034;-69
2021/08/08 12:12:11;;;;;;;1.75;0.60;;;;;;;;;;5035709;28;20049;-68
2021/08/08 12:14:42;;;;;;;2.10;0.60;;;;;;;;;;5035648;28;20045;-69
2021/08/08 12:17:18;;;;;;;1.48;0.63;;;;;;;;;;5035730;28;20033;-68
2021/08/08 12:19:48;;;;;;;1.02;0.50;;;;;;;;;;5035707;28;20029;-68
2021/08/08 12:22:16;;;;;;;2.88;0.60;;;;;;;;;;5035181;28;20086;-69
2021/08/08 12:24:49;;;;;;;0.95;0.57;;;;;;;;;;5035230;28;20025;-69
2021/08/08 12:27:16;;;;;;;2.08;0.70;;;;;;;;;;5034000;28;20017;-68
2021/08/08 12:29:43;;;;;;;0.80;0.50;;;;;;;;;;5034305;28;20380;-69
2021/08/08 12:32:11;;;;;;;2.78;0.47;;;;;;;;;;5035174;28;20018;-69
2021/08/08 12:34:37;;;;;;;0.73;0.47;;;;;;;;;;5035195;28;20036;-68
2021/08/08 12:37:07;;;;;;;0.88;0.50;;;;;;;;;;5035120;28;20029;-68
2021/08/08 12:39:34;;;;;;;1.15;0.60;;;;;;;;;;5035156;28;20639;-68
2021/08/08 12:42:02;;;;;;;0.88;0.50;;;;;;;;;;5033672;28;20083;-69
2021/08/08 12:44:35;;;;;;;0.85;0.43;;;;;;;;;;5035124;28;20500;-68
2021/08/08 12:47:02;;;;;;;0.68;0.50;;;;;;;;;;5033702;28;20489;-68
2021/08/08 12:49:36;;;;;;;2.50;0.70;;;;;;;;;;5034891;28;20030;-68
2021/08/08 12:52:02;;;;;;;2.05;0.82;;;;;;;;;;5034873;28;20666;-69
2021/08/08 12:54:28;;;;;;;0.73;0.50;;;;;;;;;;5035069;28;20067;-68
2021/08/08 12:56:54;;;;;;;0.90;0.55;;;;;;;;;;5034261;28;20028;-69
2021/08/08 12:59:20;;;;;;;2.53;0.63;;;;;;;;;;5034609;28;20036;-68
2021/08/08 13:01:46;;;;;;;1.65;0.52;;;;;;;;;;5034712;28;20025;-68
2021/08/08 13:04:13;;;;;;;0.98;0.60;;;;;;;;;;5034427;28;20048;-68
2021/08/08 13:06:39;;;;;;;1.88;0.60;;;;;;;;;;5034867;28;20111;-68
2021/08/08 13:09:05;;;;;;;0.77;0.50;;;;;;;;;;5034762;28;20037;-68
2021/08/08 13:11:31;;;;;;;0.47;0.30;;;;;;;;;;5034549;28;20025;-68
2021/08/08 13:13:57;;;;;;;1.13;0.70;;;;;;;;;;5034415;28;20048;-68
2021/08/08 13:16:23;;;;;;;0.65;0.43;;;;;;;;;;5034276;28;20591;-68
2021/08/08 13:18:49;;;;;;;1.40;0.60;;;;;;;;;;5034506;28;20464;-68
2021/08/08 13:21:15;;;;;;;1.65;0.70;;;;;;;;;;5034268;28;20489;-68
2021/08/08 13:23:41;;;;;;;1.23;0.55;;;;;;;;;;5034147;28;20045;-68
2021/08/08 13:26:07;;;;;;;2.30;1.00;;;;;;;;;;5032900;28;20025;-69
2021/08/08 13:28:33;;;;;;;1.50;0.80;;;;;;;;;;5034167;28;20504;-68
2021/08/08 13:30:59;;;;;;;1.48;0.50;;;;;;;;;;5034216;28;20079;-69
2021/08/08 13:33:25;;;;;;;1.05;0.50;;;;;;;;;;5034278;28;20018;-68
2021/08/08 13:35:51;;;;;;;1.67;0.60;;;;;;;;;;5034270;28;20027;-67
2021/08/08 13:38:17;;;;;;;1.80;0.70;;;;;;;;;;5033923;28;20026;-68
2021/08/08 13:40:44;;;;;;;1.10;0.50;;;;;;;;;;5034126;28;20017;-68
2021/08/08 13:43:10;;;;;;;1.17;0.57;;;;;;;;;;5034159;28;20033;-68
2021/08/08 13:45:36;;;;;;;1.63;0.77;;;;;;;;;;5033907;28;20014;-68
2021/08/08 13:48:02;;;;;;;1.23;0.60;;;;;;;;;;5032495;28;20032;-68
2021/08/08 13:50:28;;;;;;;0.70;0.50;;;;;;;;;;5034100;28;20465;-68
2021/08/08 13:52:54;;;;;;;0.82;0.50;;;;;;;;;;5034066;28;20033;-68
2021/08/08 13:55:20;;;;;;;0.88;0.52;;;;;;;;;;5032593;28;20429;-68
2021/08/08 13:57:47;;;;;;;1.35;0.70;;;;;;;;;;5033709;28;20550;-68
2021/08/08 14:00:13;;;;;;;1.25;0.60;;;;;;;;;;5032197;28;20152;-68
2021/08/08 14:02:40;;;;;;;1.25;0.70;;;;;;;;;;5033544;28;20028;-68
2021/08/08 14:05:09;;;;;;;2.30;0.75;;;;;;;;;;5033572;28;20032;-68
2021/08/08 14:07:36;;;;;;;1.02;0.60;;;;;;;;;;5033437;28;20093;-68
2021/08/08 14:10:03;;;;;;;1.85;0.70;;;;;;;;;;5032362;28;20404;-69
2021/08/08 14:12:29;;;;;;;1.27;0.60;;;;;;;;;;5033459;28;20432;-68
2021/08/08 14:14:55;;;;;;;1.17;0.60;;;;;;;;;;5033324;28;20041;-68
2021/08/08 14:17:21;;;;;;;1.63;0.60;;;;;;;;;;5033409;28;20108;-68
2021/08/08 14:19:47;;;;;;;1.38;0.80;;;;;;;;;;5032069;28;20116;-68
2021/08/08 14:22:13;;;;;;;1.98;0.90;;;;;;;;;;5033174;28;20033;-68
2021/08/08 14:24:39;;;;;;;1.65;0.70;;;;;;;;;;5031771;28;20032;-68
2021/08/08 14:27:06;;;;;;;1.58;0.57;;;;;;;;;;5033000;28;20024;-68
2021/08/08 14:29:32;;;;;;;1.35;0.70;;;;;;;;;;5032864;28;20029;-68
2021/08/08 14:31:58;;;;;;;2.65;0.70;;;;;;;;;;5032908;28;20140;-68
2021/08/08 14:34:24;;;;;;;1.23;0.57;;;;;;;;;;5033031;28;20018;-68
2021/08/08 14:36:50;;;;;;;1.00;0.70;;;;;;;;;;5032928;28;20104;-68
2021/08/08 14:39:16;;;;;;;2.35;0.88;;;;;;;;;;5033246;28;20051;-67
2021/08/08 14:41:42;;;;;;;2.15;0.85;;;;;;;;;;5032772;28;20030;-68